Time;durP1;ratioP1;P1;durP2;ratioP2;P2;SDS_P1;SDS_P2;PMS_P1;PMS_P2;Temp;Humidity;BMP_temperature;BMP_pressure;BME280_temperature;BME280_humidity;BME280_pressure;Samples;Min_cycle;Max_cycle;Signal;HPM_P1;HPM_P2
2022/03/03 00:02:25;;;;;;;81.57;35.17;;;;;;;;;;5015222;28;20232;-56
2022/03/03 00:04:53;;;;;;;60.33;28.03;;;;;;;;;;5015236;28;20211;-59
2022/03/03 00:07:19;;;;;;;48.93;25.77;;;;;;;;;;5015191;28;20304;-53
2022/03/03 00:09:47;;;;;;;50.80;26.93;;;;;;;;;;5015151;28;20217;-59
2022/03/03 00:12:14;;;;;;;49.57;25.30;;;;;;;;;;5015394;28;20223;-58
2022/03/03 00:14:41;;;;;;;47.63;24.47;;;;;;;;;;5015574;28;20229;-55
2022/03/03 00:17:08;;;;;;;49.17;25.47;;;;;;;;;;5015439;28;20217;-56
2022/03/03 00:19:35;;;;;;;53.57;26.70;;;;;;;;;;5015348;28;20212;-54
2022/03/03 00:22:02;;;;;;;49.40;25.37;;;;;;;;;;5014914;28;20334;-52
2022/03/03 00:24:30;;;;;;;46.17;26.27;;;;;;;;;;5015651;28;20295;-54
2022/03/03 00:26:57;;;;;;;49.93;25.50;;;;;;;;;;5015065;28;20220;-51
2022/03/03 00:29:24;;;;;;;49.77;26.53;;;;;;;;;;5015173;28;20209;-58
2022/03/03 00:31:51;;;;;;;46.63;24.53;;;;;;;;;;5014783;28;20240;-54
2022/03/03 00:34:18;;;;;;;49.23;25.30;;;;;;;;;;5015052;28;20205;-52
2022/03/03 00:36:46;;;;;;;47.77;24.73;;;;;;;;;;5015078;28;20594;-55
2022/03/03 00:39:13;;;;;;;48.97;25.73;;;;;;;;;;5015047;28;20257;-59
2022/03/03 00:41:40;;;;;;;46.23;24.57;;;;;;;;;;5015036;28;20213;-54
2022/03/03 00:44:09;;;;;;;53.77;26.40;;;;;;;;;;5014839;28;20545;-54
2022/03/03 00:46:37;;;;;;;52.77;27.20;;;;;;;;;;5015040;28;20320;-54
2022/03/03 00:49:05;;;;;;;54.53;26.43;;;;;;;;;;5014838;28;20202;-54
2022/03/03 00:51:32;;;;;;;48.53;26.10;;;;;;;;;;5014917;28;20300;-52
2022/03/03 00:53:59;;;;;;;57.30;28.37;;;;;;;;;;5014839;28;20233;-52
2022/03/03 00:56:26;;;;;;;51.90;26.77;;;;;;;;;;5014850;28;20206;-55
2022/03/03 00:58:53;;;;;;;54.93;27.10;;;;;;;;;;5015113;28;20273;-56
2022/03/03 01:01:20;;;;;;;56.67;27.30;;;;;;;;;;5014621;28;20256;-58
2022/03/03 01:03:47;;;;;;;58.37;27.53;;;;;;;;;;5015238;28;20292;-55
2022/03/03 01:06:15;;;;;;;52.57;27.77;;;;;;;;;;5014959;28;20249;-54
2022/03/03 01:08:42;;;;;;;53.90;27.63;;;;;;;;;;5015088;28;20239;-55
2022/03/03 01:11:09;;;;;;;56.37;28.77;;;;;;;;;;5014605;28;20701;-52
2022/03/03 01:13:36;;;;;;;46.17;24.90;;;;;;;;;;5014666;28;20213;-53
2022/03/03 01:16:04;;;;;;;51.97;25.27;;;;;;;;;;5014343;28;20260;-57
2022/03/03 01:18:31;;;;;;;50.90;26.33;;;;;;;;;;5014801;28;20311;-55
2022/03/03 01:20:58;;;;;;;51.53;26.40;;;;;;;;;;5014662;28;20292;-54
2022/03/03 01:23:25;;;;;;;48.90;27.07;;;;;;;;;;5014449;28;20237;-57
2022/03/03 01:25:52;;;;;;;51.60;27.13;;;;;;;;;;5015001;28;20210;-56
2022/03/03 01:28:19;;;;;;;50.33;27.40;;;;;;;;;;5014580;28;20197;-55
2022/03/03 01:30:47;;;;;;;54.67;27.43;;;;;;;;;;5014522;28;20233;-55
2022/03/03 01:33:14;;;;;;;55.07;28.10;;;;;;;;;;5014570;28;20210;-58
2022/03/03 01:35:41;;;;;;;53.87;27.53;;;;;;;;;;5017713;28;20255;-54
2022/03/03 01:38:09;;;;;;;54.37;27.77;;;;;;;;;;5017809;28;20260;-52
2022/03/03 01:40:36;;;;;;;55.67;28.27;;;;;;;;;;5018163;28;20597;-55
2022/03/03 01:43:04;;;;;;;56.57;29.17;;;;;;;;;;5018060;28;20638;-56
2022/03/03 01:45:32;;;;;;;55.30;27.87;;;;;;;;;;5033329;28;20648;-51
2022/03/03 01:47:59;;;;;;;54.17;26.53;;;;;;;;;;5018343;28;20307;-53
2022/03/03 01:50:26;;;;;;;63.10;30.27;;;;;;;;;;5017974;28;20236;-53
2022/03/03 01:52:53;;;;;;;56.80;28.47;;;;;;;;;;5018120;28;20243;-58
2022/03/03 01:55:21;;;;;;;50.80;27.90;;;;;;;;;;5017808;28;20221;-51
2022/03/03 01:57:50;;;;;;;56.37;27.87;;;;;;;;;;5017652;28;20268;-54
2022/03/03 02:00:18;;;;;;;58.90;29.07;;;;;;;;;;5017786;28;20279;-54
2022/03/03 02:02:46;;;;;;;53.00;27.27;;;;;;;;;;5017567;28;20217;-53
2022/03/03 02:05:14;;;;;;;57.57;28.33;;;;;;;;;;5017670;28;20209;-55
2022/03/03 02:07:42;;;;;;;57.73;28.20;;;;;;;;;;5017351;28;20666;-52
2022/03/03 02:10:09;;;;;;;55.47;28.13;;;;;;;;;;5017268;28;20202;-57
2022/03/03 02:12:37;;;;;;;52.70;27.90;;;;;;;;;;5017244;28;20220;-51
2022/03/03 02:15:04;;;;;;;61.23;30.37;;;;;;;;;;5017531;28;20201;-57
2022/03/03 02:17:32;;;;;;;58.17;30.20;;;;;;;;;;5018039;28;20296;-52
2022/03/03 02:20:07;;;;;;;57.60;28.33;;;;;;;;;;5017294;28;20603;-52
2022/03/03 02:22:35;;;;;;;57.03;29.43;;;;;;;;;;5017298;28;20255;-56
2022/03/03 02:25:03;;;;;;;58.17;29.00;;;;;;;;;;5017367;28;20642;-51
2022/03/03 02:27:30;;;;;;;58.27;28.53;;;;;;;;;;5017239;28;20255;-53
2022/03/03 02:29:58;;;;;;;53.77;28.07;;;;;;;;;;5017034;28;20655;-59
2022/03/03 02:32:25;;;;;;;55.93;29.07;;;;;;;;;;5017438;28;20209;-55
2022/03/03 02:34:51;;;;;;;55.33;29.23;;;;;;;;;;5017143;28;20259;-52
2022/03/03 02:37:19;;;;;;;59.93;29.23;;;;;;;;;;5017030;28;20244;-53
2022/03/03 02:39:46;;;;;;;51.17;28.03;;;;;;;;;;5016734;28;20312;-53
2022/03/03 02:42:13;;;;;;;57.73;30.67;;;;;;;;;;5017223;28;20225;-50
2022/03/03 02:44:40;;;;;;;53.43;28.73;;;;;;;;;;5016822;28;20229;-59
2022/03/03 02:47:07;;;;;;;55.23;29.93;;;;;;;;;;5016512;28;20237;-54
2022/03/03 02:49:34;;;;;;;55.27;29.53;;;;;;;;;;5016873;28;20205;-53
2022/03/03 02:52:02;;;;;;;59.40;29.07;;;;;;;;;;5016689;28;20636;-50
2022/03/03 02:54:29;;;;;;;59.23;30.77;;;;;;;;;;5016761;28;20212;-57
2022/03/03 02:59:42;;;;;;;53.70;28.40;;;;;;;;;;5032498;28;20259;-52
2022/03/03 03:02:08;;;;;;;52.13;28.87;;;;;;;;;;5016358;28;20307;-52
2022/03/03 03:04:37;;;;;;;66.60;30.57;;;;;;;;;;5016588;28;20205;-57
2022/03/03 03:07:04;;;;;;;52.40;28.43;;;;;;;;;;5017168;28;20324;-57
2022/03/03 03:09:31;;;;;;;58.70;29.53;;;;;;;;;;5016830;28;20618;-52
2022/03/03 03:11:58;;;;;;;53.20;28.07;;;;;;;;;;5016557;28;20239;-53
2022/03/03 03:14:25;;;;;;;55.73;29.43;;;;;;;;;;5016387;28;20240;-55
2022/03/03 03:16:52;;;;;;;58.40;29.17;;;;;;;;;;5016197;28;20202;-50
2022/03/03 03:19:20;;;;;;;52.53;28.17;;;;;;;;;;5016194;28;20228;-51
2022/03/03 03:21:48;;;;;;;54.10;28.33;;;;;;;;;;5016337;28;20209;-50
2022/03/03 03:24:15;;;;;;;58.10;28.67;;;;;;;;;;5016204;28;20209;-55
2022/03/03 03:26:42;;;;;;;56.30;29.37;;;;;;;;;;5016004;28;20205;-50
2022/03/03 03:29:09;;;;;;;52.87;28.53;;;;;;;;;;5016084;28;20360;-54
2022/03/03 03:31:36;;;;;;;58.17;27.47;;;;;;;;;;5015970;28;20293;-55
2022/03/03 03:34:03;;;;;;;49.43;27.03;;;;;;;;;;5016055;28;20236;-54
2022/03/03 03:36:31;;;;;;;49.87;26.63;;;;;;;;;;5015924;28;20650;-53
2022/03/03 03:38:58;;;;;;;48.83;27.17;;;;;;;;;;5015852;28;20221;-51
2022/03/03 03:41:25;;;;;;;58.37;29.70;;;;;;;;;;5015746;28;20236;-56
2022/03/03 03:43:52;;;;;;;52.13;28.77;;;;;;;;;;5014993;28;20229;-58
2022/03/03 03:46:19;;;;;;;52.10;27.83;;;;;;;;;;5013903;28;20442;-59
2022/03/03 03:48:47;;;;;;;49.70;26.33;;;;;;;;;;5014441;28;20324;-51
2022/03/03 03:51:14;;;;;;;48.00;26.13;;;;;;;;;;5015641;28;20641;-55
2022/03/03 03:53:41;;;;;;;50.37;26.80;;;;;;;;;;5015564;28;20297;-55
2022/03/03 03:56:08;;;;;;;48.40;26.37;;;;;;;;;;5014341;28;20225;-55
2022/03/03 03:58:35;;;;;;;50.00;27.33;;;;;;;;;;5014947;28;20345;-56
2022/03/03 04:01:02;;;;;;;50.97;27.07;;;;;;;;;;5015172;28;20205;-54
2022/03/03 04:03:29;;;;;;;53.20;25.50;;;;;;;;;;5015559;28;20287;-54
2022/03/03 04:05:57;;;;;;;47.37;25.13;;;;;;;;;;5015461;28;20236;-52
2022/03/03 04:08:24;;;;;;;46.97;22.80;;;;;;;;;;5015407;28;20748;-58
2022/03/03 04:10:51;;;;;;;42.60;21.70;;;;;;;;;;5015368;28;20267;-53
2022/03/03 04:13:21;;;;;;;41.73;22.80;;;;;;;;;;5015266;28;20639;-57
2022/03/03 04:15:48;;;;;;;45.47;22.43;;;;;;;;;;5015380;28;20213;-58
2022/03/03 04:18:15;;;;;;;42.27;22.13;;;;;;;;;;5015231;28;20208;-56
2022/03/03 04:20:42;;;;;;;41.97;22.47;;;;;;;;;;5015278;28;20224;-56
2022/03/03 04:23:09;;;;;;;45.13;22.47;;;;;;;;;;5015335;28;20209;-52
2022/03/03 04:25:36;;;;;;;39.77;21.93;;;;;;;;;;5015105;28;20209;-54
2022/03/03 04:28:04;;;;;;;45.47;22.50;;;;;;;;;;5014751;28;20296;-57
2022/03/03 04:30:31;;;;;;;49.37;23.83;;;;;;;;;;5015205;28;20301;-53
2022/03/03 04:32:58;;;;;;;40.47;23.33;;;;;;;;;;5015040;28;20197;-53
2022/03/03 04:35:25;;;;;;;46.70;24.90;;;;;;;;;;5014995;28;20354;-55
2022/03/03 04:37:53;;;;;;;42.77;23.20;;;;;;;;;;5014954;28;20232;-54
2022/03/03 04:40:20;;;;;;;47.07;23.97;;;;;;;;;;5014709;28;20222;-54
2022/03/03 04:42:49;;;;;;;51.13;26.03;;;;;;;;;;5014862;28;20208;-52
2022/03/03 04:45:16;;;;;;;49.53;24.97;;;;;;;;;;5014881;28;20217;-58
2022/03/03 04:47:44;;;;;;;60.40;26.20;;;;;;;;;;5014455;28;20237;-55
2022/03/03 04:50:11;;;;;;;53.43;27.13;;;;;;;;;;5014395;28;20206;-55
2022/03/03 04:52:38;;;;;;;49.53;25.77;;;;;;;;;;5013867;28;20697;-59
2022/03/03 04:55:06;;;;;;;48.23;25.37;;;;;;;;;;5014718;28;20213;-55
2022/03/03 04:57:34;;;;;;;50.13;27.40;;;;;;;;;;5013984;28;20201;-57
2022/03/03 05:00:03;;;;;;;47.87;26.40;;;;;;;;;;5013807;28;20612;-56
2022/03/03 05:02:32;;;;;;;47.87;26.17;;;;;;;;;;5013909;28;20821;-54
2022/03/03 05:04:59;;;;;;;53.70;26.93;;;;;;;;;;5007784;28;20280;-59
2022/03/03 05:07:27;;;;;;;52.57;26.67;;;;;;;;;;5013514;28;20320;-58
2022/03/03 05:09:54;;;;;;;51.27;26.03;;;;;;;;;;5015835;28;20229;-58
2022/03/03 05:12:21;;;;;;;54.13;26.97;;;;;;;;;;4992962;28;20308;-60
2022/03/03 05:14:48;;;;;;;60.53;27.83;;;;;;;;;;5017441;28;20316;-59
2022/03/03 05:17:15;;;;;;;63.17;28.63;;;;;;;;;;5017433;28;20241;-58
2022/03/03 05:19:43;;;;;;;66.03;29.40;;;;;;;;;;5016500;28;20245;-57
2022/03/03 05:22:10;;;;;;;70.87;28.90;;;;;;;;;;5017511;28;20239;-57
2022/03/03 05:24:38;;;;;;;62.07;30.50;;;;;;;;;;5016270;28;20241;-59
2022/03/03 05:27:06;;;;;;;65.40;29.03;;;;;;;;;;5017503;28;20542;-54
2022/03/03 05:29:33;;;;;;;65.33;29.90;;;;;;;;;;5017168;28;20233;-50
2022/03/03 05:32:00;;;;;;;61.67;27.70;;;;;;;;;;5017691;28;20225;-59
2022/03/03 05:34:27;;;;;;;61.93;29.10;;;;;;;;;;5016375;28;20585;-56
2022/03/03 05:36:54;;;;;;;57.27;26.57;;;;;;;;;;5017228;28;20248;-57
2022/03/03 05:39:22;;;;;;;53.90;28.07;;;;;;;;;;5016868;28;20241;-54
2022/03/03 05:41:50;;;;;;;55.03;26.93;;;;;;;;;;5017355;28;20645;-53
2022/03/03 05:44:17;;;;;;;56.23;28.03;;;;;;;;;;5016498;28;20225;-54
2022/03/03 05:46:44;;;;;;;53.90;27.10;;;;;;;;;;5032284;28;20329;-57
2022/03/03 05:49:12;;;;;;;52.97;26.47;;;;;;;;;;5016396;28;20256;-58
2022/03/03 05:51:39;;;;;;;57.03;27.97;;;;;;;;;;5015985;28;20625;-55
2022/03/03 05:54:06;;;;;;;55.07;27.90;;;;;;;;;;5016486;28;20233;-54
2022/03/03 05:56:39;;;;;;;60.63;28.23;;;;;;;;;;5016212;28;20709;-56
2022/03/03 05:59:07;;;;;;;49.83;26.37;;;;;;;;;;5016870;28;20236;-52
2022/03/03 06:01:37;;;;;;;51.57;25.97;;;;;;;;;;5015933;28;20950;-55
2022/03/03 06:04:07;;;;;;;46.27;25.30;;;;;;;;;;5016514;28;20237;-56
2022/03/03 06:06:36;;;;;;;53.07;28.20;;;;;;;;;;5015549;28;20252;-54
2022/03/03 06:09:14;;;;;;;56.97;27.10;;;;;;;;;;5016887;28;20245;-50
2022/03/03 06:11:47;;;;;;;52.57;27.57;;;;;;;;;;5016465;28;20256;-52
2022/03/03 06:14:23;;;;;;;54.67;27.87;;;;;;;;;;5017243;28;20233;-51
2022/03/03 06:16:50;;;;;;;54.57;27.17;;;;;;;;;;5017651;28;20235;-50
2022/03/03 06:19:19;;;;;;;52.63;26.17;;;;;;;;;;5016771;28;20225;-50
2022/03/03 06:21:48;;;;;;;52.83;27.00;;;;;;;;;;5016912;28;20659;-53
2022/03/03 06:24:15;;;;;;;55.50;26.93;;;;;;;;;;5017453;28;20217;-53
2022/03/03 06:26:42;;;;;;;48.80;25.27;;;;;;;;;;5017003;28;20300;-54
2022/03/03 06:29:09;;;;;;;54.47;27.00;;;;;;;;;;5016420;28;20284;-51
2022/03/03 06:31:36;;;;;;;46.60;25.33;;;;;;;;;;4999725;28;20205;-50
2022/03/03 06:34:03;;;;;;;49.77;26.43;;;;;;;;;;5016080;28;20669;-52
2022/03/03 06:36:30;;;;;;;45.20;25.77;;;;;;;;;;5017169;28;20228;-51
2022/03/03 06:38:57;;;;;;;54.03;27.03;;;;;;;;;;5017062;28;20225;-50
2022/03/03 06:41:25;;;;;;;59.67;27.00;;;;;;;;;;5017514;28;20212;-56
2022/03/03 06:43:53;;;;;;;52.03;27.30;;;;;;;;;;5016716;28;20229;-57
2022/03/03 06:46:21;;;;;;;53.93;27.60;;;;;;;;;;5016879;28;20233;-50
2022/03/03 06:48:48;;;;;;;53.40;26.83;;;;;;;;;;5016944;28;20201;-50
2022/03/03 06:51:15;;;;;;;55.40;25.23;;;;;;;;;;5016871;28;20244;-55
2022/03/03 06:53:44;;;;;;;52.50;26.67;;;;;;;;;;5016634;28;20657;-52
2022/03/03 06:56:12;;;;;;;47.90;25.17;;;;;;;;;;5016766;28;20292;-53
2022/03/03 06:58:41;;;;;;;51.03;27.17;;;;;;;;;;5016662;28;20229;-55
2022/03/03 07:01:09;;;;;;;49.80;25.43;;;;;;;;;;5016534;28;20316;-54
2022/03/03 07:03:38;;;;;;;48.67;24.43;;;;;;;;;;5016639;28;20213;-50
2022/03/03 07:06:06;;;;;;;51.40;24.97;;;;;;;;;;5016418;28;20229;-51
2022/03/03 07:08:34;;;;;;;45.23;23.97;;;;;;;;;;5016557;28;20220;-52
2022/03/03 07:11:01;;;;;;;49.10;21.90;;;;;;;;;;5016408;28;20288;-50
2022/03/03 07:13:29;;;;;;;43.67;23.13;;;;;;;;;;5016354;28;20651;-51
2022/03/03 07:16:15;;;;;;;48.60;24.53;;;;;;;;;;5016430;28;20205;-51
2022/03/03 07:18:45;;;;;;;45.03;23.57;;;;;;;;;;5016393;28;20236;-52
2022/03/03 07:21:46;;;;;;;40.53;21.93;;;;;;;;;;5015091;28;20662;-50
2022/03/03 07:24:28;;;;;;;39.63;22.03;;;;;;;;;;5011497;28;20256;-51
2022/03/03 07:26:58;;;;;;;46.63;22.57;;;;;;;;;;5015976;28;20224;-54
2022/03/03 07:29:29;;;;;;;42.27;20.77;;;;;;;;;;5016230;28;20662;-51
2022/03/03 07:31:59;;;;;;;39.33;20.00;;;;;;;;;;5015098;28;20631;-53
2022/03/03 07:34:34;;;;;;;43.33;21.03;;;;;;;;;;5016593;28;20229;-53
2022/03/03 07:37:07;;;;;;;37.60;19.37;;;;;;;;;;5016174;28;20560;-50
2022/03/03 07:39:39;;;;;;;42.80;20.50;;;;;;;;;;5015955;28;20253;-54
2022/03/03 07:42:19;;;;;;;38.13;19.63;;;;;;;;;;5015768;28;20580;-50
2022/03/03 07:44:47;;;;;;;37.87;18.87;;;;;;;;;;5016035;28;20193;-54
2022/03/03 07:47:14;;;;;;;39.63;20.90;;;;;;;;;;5015992;28;20323;-54
2022/03/03 07:49:45;;;;;;;34.80;19.40;;;;;;;;;;5015855;28;20202;-53
2022/03/03 07:52:12;;;;;;;36.17;19.87;;;;;;;;;;5015896;28;20212;-55
2022/03/03 07:54:39;;;;;;;39.23;19.97;;;;;;;;;;5015495;28;20221;-51
2022/03/03 07:57:13;;;;;;;42.77;20.17;;;;;;;;;;5015985;28;20224;-54
2022/03/03 07:59:46;;;;;;;41.87;20.00;;;;;;;;;;5015017;28;20229;-53
2022/03/03 08:02:22;;;;;;;34.67;19.73;;;;;;;;;;5015368;28;20236;-50
2022/03/03 08:04:51;;;;;;;35.70;19.03;;;;;;;;;;5016259;28;20270;-53
2022/03/03 08:07:19;;;;;;;39.80;18.83;;;;;;;;;;5015424;28;20229;-51
2022/03/03 08:09:50;;;;;;;32.67;18.07;;;;;;;;;;5015406;28;20221;-52
2022/03/03 08:12:22;;;;;;;30.20;16.63;;;;;;;;;;5014624;28;20255;-58
2022/03/03 08:14:49;;;;;;;32.90;17.27;;;;;;;;;;5015209;28;20198;-51
2022/03/03 08:17:18;;;;;;;36.30;16.40;;;;;;;;;;5015314;28;20209;-55
2022/03/03 08:19:45;;;;;;;31.33;16.73;;;;;;;;;;5014418;28;20321;-55
2022/03/03 08:22:13;;;;;;;30.90;15.70;;;;;;;;;;5015264;28;20646;-55
2022/03/03 08:24:43;;;;;;;28.67;15.40;;;;;;;;;;5015084;28;20237;-54
2022/03/03 08:27:12;;;;;;;28.63;16.27;;;;;;;;;;5015079;28;20609;-54
2022/03/03 08:29:39;;;;;;;27.93;14.47;;;;;;;;;;5015028;28;20225;-50
2022/03/03 08:32:16;;;;;;;29.93;15.37;;;;;;;;;;5014987;28;20288;-56
2022/03/03 08:34:49;;;;;;;32.67;15.27;;;;;;;;;;5015340;28;20570;-54
2022/03/03 08:37:19;;;;;;;26.40;15.03;;;;;;;;;;5015218;28;20201;-53
2022/03/03 08:39:46;;;;;;;27.63;15.53;;;;;;;;;;5014755;28;20250;-54
2022/03/03 08:42:16;;;;;;;30.37;14.67;;;;;;;;;;5014837;28;20209;-52
2022/03/03 08:44:52;;;;;;;25.77;14.20;;;;;;;;;;5013900;28;20312;-54
2022/03/03 08:47:21;;;;;;;25.10;15.00;;;;;;;;;;5014631;28;20233;-51
2022/03/03 08:49:58;;;;;;;29.07;15.63;;;;;;;;;;5015244;28;20648;-52
2022/03/03 08:52:45;;;;;;;36.90;19.13;;;;;;;;;;5014782;28;20588;-57
2022/03/03 08:55:13;;;;;;;28.57;14.53;;;;;;;;;;5015506;28;20209;-56
2022/03/03 08:57:41;;;;;;;25.33;13.13;;;;;;;;;;5014846;28;20205;-55
2022/03/03 09:00:11;;;;;;;21.33;12.17;;;;;;;;;;5014524;28;20229;-55
2022/03/03 09:02:43;;;;;;;23.80;11.37;;;;;;;;;;5014691;28;20205;-53
2022/03/03 09:05:10;;;;;;;24.83;11.90;;;;;;;;;;5014623;28;20574;-54
2022/03/03 09:07:38;;;;;;;28.33;12.07;;;;;;;;;;5014798;28;20233;-52
2022/03/03 09:10:07;;;;;;;29.73;13.27;;;;;;;;;;5014675;28;20239;-54
2022/03/03 09:12:34;;;;;;;23.97;12.60;;;;;;;;;;5014897;28;20296;-51
2022/03/03 09:15:02;;;;;;;21.20;11.67;;;;;;;;;;5014706;28;20229;-55
2022/03/03 09:17:32;;;;;;;25.43;11.27;;;;;;;;;;5013649;28;20237;-56
2022/03/03 09:20:00;;;;;;;17.77;9.07;;;;;;;;;;5015280;28;20249;-56
2022/03/03 09:22:28;;;;;;;16.87;9.60;;;;;;;;;;5014636;28;20213;-54
2022/03/03 09:24:55;;;;;;;15.20;6.03;;;;;;;;;;5014685;28;20658;-57
2022/03/03 09:27:23;;;;;;;16.80;9.53;;;;;;;;;;5014391;28;20208;-55
2022/03/03 09:29:51;;;;;;;14.73;5.93;;;;;;;;;;5014299;28;20209;-55
2022/03/03 09:32:18;;;;;;;15.70;8.27;;;;;;;;;;5014824;28;20233;-55
2022/03/03 09:34:45;;;;;;;15.63;8.20;;;;;;;;;;5014550;28;20205;-57
2022/03/03 09:37:16;;;;;;;17.77;9.27;;;;;;;;;;5014556;28;20506;-53
2022/03/03 09:39:48;;;;;;;17.53;9.30;;;;;;;;;;5014409;28;20209;-53
2022/03/03 09:42:15;;;;;;;18.97;10.00;;;;;;;;;;5014272;28;20205;-56
2022/03/03 09:44:42;;;;;;;18.37;10.00;;;;;;;;;;5014479;28;20225;-54
2022/03/03 09:47:13;;;;;;;15.57;8.90;;;;;;;;;;5014436;28;20695;-56
2022/03/03 09:49:40;;;;;;;19.00;10.47;;;;;;;;;;5014446;28;20225;-55
2022/03/03 09:52:15;;;;;;;20.50;10.53;;;;;;;;;;5014032;28;20210;-55
2022/03/03 09:54:43;;;;;;;17.57;9.97;;;;;;;;;;5014571;28;20300;-55
2022/03/03 09:57:11;;;;;;;16.77;9.30;;;;;;;;;;5017935;28;20244;-55
2022/03/03 09:59:38;;;;;;;21.27;10.57;;;;;;;;;;5018417;28;20205;-54
2022/03/03 10:02:06;;;;;;;21.63;10.93;;;;;;;;;;5017438;28;20268;-57
2022/03/03 10:04:34;;;;;;;18.70;10.33;;;;;;;;;;5017979;28;20206;-58
2022/03/03 10:07:09;;;;;;;19.37;11.37;;;;;;;;;;5017431;28;20547;-56
2022/03/03 10:12:45;;;;;;;19.23;10.83;;;;;;;;;;5017614;28;20236;-54
2022/03/03 10:15:17;;;;;;;22.10;11.50;;;;;;;;;;5017376;28;20193;-55
2022/03/03 10:17:45;;;;;;;22.60;12.43;;;;;;;;;;5017491;28;20210;-56
2022/03/03 10:20:12;;;;;;;22.50;12.53;;;;;;;;;;5017166;28;20297;-56
2022/03/03 10:22:47;;;;;;;21.57;12.13;;;;;;;;;;5017424;28;20244;-54
2022/03/03 10:25:33;;;;;;;25.63;12.70;;;;;;;;;;5017239;28;20247;-55
2022/03/03 10:28:10;;;;;;;18.17;9.30;;;;;;;;;;5017240;28;20689;-51
2022/03/03 10:31:03;;;;;;;15.00;8.33;;;;;;;;;;5017356;28;20220;-53
2022/03/03 10:33:38;;;;;;;16.93;9.67;;;;;;;;;;5013179;28;20241;-58
2022/03/03 10:36:12;;;;;;;19.47;10.30;;;;;;;;;;5017476;28;20193;-56
2022/03/03 10:38:45;;;;;;;16.63;9.70;;;;;;;;;;5016321;28;20261;-55
2022/03/03 10:41:41;;;;;;;19.67;9.03;;;;;;;;;;5017008;28;20229;-54
2022/03/03 10:44:20;;;;;;;16.90;9.47;;;;;;;;;;5017183;28;20217;-54
2022/03/03 10:47:11;;;;;;;19.70;10.00;;;;;;;;;;5016692;28;20243;-55
2022/03/03 10:49:41;;;;;;;16.80;8.97;;;;;;;;;;5017540;28;20237;-54
2022/03/03 10:52:26;;;;;;;23.10;10.53;;;;;;;;;;5016883;28;20236;-56
2022/03/03 10:55:05;;;;;;;23.20;9.90;;;;;;;;;;5016922;28;20213;-54
2022/03/03 10:57:45;;;;;;;20.67;10.97;;;;;;;;;;5016531;28;20287;-51
2022/03/03 11:00:19;;;;;;;21.03;10.57;;;;;;;;;;5016921;28;20267;-56
2022/03/03 11:02:48;;;;;;;19.20;10.67;;;;;;;;;;5016430;28;20205;-58
2022/03/03 11:05:17;;;;;;;20.77;11.93;;;;;;;;;;5016655;28;20236;-56
2022/03/03 11:07:45;;;;;;;21.70;11.37;;;;;;;;;;5016530;28;20598;-55
2022/03/03 11:10:17;;;;;;;21.23;10.63;;;;;;;;;;5017264;28;20205;-54
2022/03/03 11:12:44;;;;;;;21.70;11.37;;;;;;;;;;5016376;28;20287;-56
2022/03/03 11:15:12;;;;;;;21.00;11.27;;;;;;;;;;5016327;28;20288;-55
2022/03/03 11:17:40;;;;;;;20.73;11.00;;;;;;;;;;5016391;28;20205;-56
2022/03/03 11:20:10;;;;;;;19.37;10.93;;;;;;;;;;5016059;28;20240;-54
2022/03/03 11:22:38;;;;;;;17.90;10.57;;;;;;;;;;5016557;28;20213;-55
2022/03/03 11:25:11;;;;;;;19.87;11.87;;;;;;;;;;5016047;28;20210;-56
2022/03/03 11:27:41;;;;;;;18.33;10.77;;;;;;;;;;5016389;28;20221;-53
2022/03/03 11:30:11;;;;;;;20.97;10.10;;;;;;;;;;5016156;28;20232;-56
2022/03/03 11:32:39;;;;;;;16.33;10.37;;;;;;;;;;5016200;28;20228;-56
2022/03/03 11:35:09;;;;;;;18.33;11.17;;;;;;;;;;5015891;28;20240;-56
2022/03/03 11:37:41;;;;;;;19.03;10.80;;;;;;;;;;5016018;28;20201;-57
2022/03/03 11:40:16;;;;;;;16.07;10.13;;;;;;;;;;5015976;28;20658;-54
2022/03/03 11:42:49;;;;;;;19.33;11.33;;;;;;;;;;5015081;28;20538;-57
2022/03/03 11:45:27;;;;;;;23.77;11.70;;;;;;;;;;5015558;28;20654;-56
2022/03/03 11:48:10;;;;;;;24.70;11.20;;;;;;;;;;5015002;28;20256;-54
2022/03/03 11:50:37;;;;;;;20.67;11.37;;;;;;;;;;5015621;28;20705;-56
2022/03/03 11:53:10;;;;;;;20.77;11.37;;;;;;;;;;5015690;28;20252;-56
2022/03/03 11:55:46;;;;;;;18.33;11.17;;;;;;;;;;5015502;28;20233;-54
2022/03/03 11:58:27;;;;;;;21.13;11.13;;;;;;;;;;5015764;28;20216;-55
2022/03/03 12:00:58;;;;;;;22.60;13.07;;;;;;;;;;5015578;28;20283;-53
2022/03/03 12:03:26;;;;;;;23.13;12.73;;;;;;;;;;5015813;28;20197;-57
2022/03/03 12:06:10;;;;;;;25.57;14.07;;;;;;;;;;5015564;28;20251;-55
2022/03/03 12:08:38;;;;;;;25.97;15.70;;;;;;;;;;5015321;28;20213;-52
2022/03/03 12:11:13;;;;;;;20.83;12.20;;;;;;;;;;5015410;28;20243;-52
2022/03/03 12:13:50;;;;;;;22.00;12.77;;;;;;;;;;5015562;28;20695;-59
2022/03/03 12:16:25;;;;;;;21.17;12.00;;;;;;;;;;5015514;28;20541;-57
2022/03/03 12:18:55;;;;;;;22.83;13.00;;;;;;;;;;5015026;28;20220;-55
2022/03/03 12:21:29;;;;;;;24.13;13.90;;;;;;;;;;5015343;28;20221;-53
2022/03/03 12:24:15;;;;;;;20.13;12.77;;;;;;;;;;5015378;28;20243;-57
2022/03/03 12:26:50;;;;;;;22.73;13.37;;;;;;;;;;5015023;28;20259;-55
2022/03/03 12:29:37;;;;;;;21.93;12.77;;;;;;;;;;5015269;28;20668;-56
2022/03/03 12:32:29;;;;;;;29.50;16.47;;;;;;;;;;5015550;28;20208;-55
2022/03/03 12:35:00;;;;;;;25.03;13.87;;;;;;;;;;5015237;28;20197;-58
2022/03/03 12:37:29;;;;;;;28.87;14.43;;;;;;;;;;5014916;28;20589;-58
2022/03/03 12:40:00;;;;;;;24.67;14.30;;;;;;;;;;5014839;28;20626;-56
2022/03/03 12:42:32;;;;;;;24.10;14.53;;;;;;;;;;5014842;28;20599;-56
2022/03/03 12:45:08;;;;;;;21.93;13.63;;;;;;;;;;5003706;28;20659;-54
2022/03/03 12:47:36;;;;;;;23.73;14.53;;;;;;;;;;5009884;28;20259;-58
2022/03/03 12:50:05;;;;;;;26.23;15.10;;;;;;;;;;5013996;28;20256;-51
2022/03/03 12:52:34;;;;;;;27.50;15.43;;;;;;;;;;5013632;28;20678;-51
2022/03/03 12:55:03;;;;;;;24.17;15.47;;;;;;;;;;5013713;28;20576;-55
2022/03/03 12:57:33;;;;;;;32.10;15.63;;;;;;;;;;5013725;28;20248;-57
2022/03/03 13:00:05;;;;;;;25.37;14.60;;;;;;;;;;5012985;28;20261;-55
2022/03/03 13:02:50;;;;;;;24.17;14.93;;;;;;;;;;5013746;28;20268;-54
2022/03/03 13:05:31;;;;;;;25.67;15.47;;;;;;;;;;5014003;28;20232;-58
2022/03/03 13:08:00;;;;;;;30.03;16.17;;;;;;;;;;5014097;28;20260;-61
2022/03/03 13:10:29;;;;;;;32.30;17.63;;;;;;;;;;5013940;28;20671;-55
2022/03/03 13:12:57;;;;;;;31.47;17.33;;;;;;;;;;5013296;28;20340;-57
2022/03/03 13:15:31;;;;;;;26.43;15.93;;;;;;;;;;5013164;28;20236;-57
2022/03/03 13:18:12;;;;;;;31.37;17.30;;;;;;;;;;5013951;28;20324;-54
2022/03/03 13:20:57;;;;;;;29.47;17.07;;;;;;;;;;5013274;28;20564;-62
2022/03/03 13:23:26;;;;;;;33.20;17.40;;;;;;;;;;5013375;28;20225;-58
2022/03/03 13:26:22;;;;;;;31.07;17.80;;;;;;;;;;5013612;28;20232;-55
2022/03/03 13:28:52;;;;;;;31.20;16.30;;;;;;;;;;5009681;28;20220;-58
2022/03/03 13:31:25;;;;;;;29.33;16.93;;;;;;;;;;5012897;28;20236;-56
2022/03/03 13:33:53;;;;;;;30.57;16.03;;;;;;;;;;5017189;28;20311;-59
2022/03/03 13:36:44;;;;;;;34.73;18.57;;;;;;;;;;5016508;28;20275;-51
2022/03/03 13:39:25;;;;;;;32.77;19.17;;;;;;;;;;5017419;28;20224;-52
2022/03/03 13:42:24;;;;;;;34.37;17.80;;;;;;;;;;5017122;28;20252;-56
2022/03/03 13:44:53;;;;;;;33.53;16.67;;;;;;;;;;5016942;28;20214;-56
2022/03/03 13:47:26;;;;;;;31.00;17.50;;;;;;;;;;5016289;28;20256;-56
2022/03/03 13:49:54;;;;;;;31.33;17.63;;;;;;;;;;5017097;28;20572;-56
2022/03/03 13:52:27;;;;;;;35.73;19.70;;;;;;;;;;5017089;28;20264;-58
2022/03/03 13:54:58;;;;;;;30.93;18.93;;;;;;;;;;5017079;28;20253;-53
2022/03/03 13:57:52;;;;;;;30.87;16.87;;;;;;;;;;5023753;28;20304;-60
2022/03/03 14:00:26;;;;;;;32.40;17.97;;;;;;;;;;5026446;28;20240;-61
2022/03/03 14:03:10;;;;;;;30.30;19.30;;;;;;;;;;5023468;28;20227;-56
2022/03/03 14:05:42;;;;;;;33.77;19.13;;;;;;;;;;5025427;28;20245;-62
2022/03/03 14:08:30;;;;;;;35.00;19.20;;;;;;;;;;5035056;28;20565;-60
2022/03/03 14:11:10;;;;;;;33.97;17.77;;;;;;;;;;5015603;28;20553;-61
2022/03/03 14:13:49;;;;;;;27.73;17.87;;;;;;;;;;5021025;28;20221;-61
2022/03/03 14:16:18;;;;;;;29.07;15.50;;;;;;;;;;5011892;28;20225;-61
2022/03/03 14:18:46;;;;;;;32.83;18.83;;;;;;;;;;5014989;28;20229;-60
2022/03/03 14:21:14;;;;;;;30.63;16.57;;;;;;;;;;5014979;28;20227;-62
2022/03/03 14:23:42;;;;;;;33.07;18.10;;;;;;;;;;5014921;28;20307;-60
2022/03/03 14:26:11;;;;;;;32.17;18.20;;;;;;;;;;5014995;28;20240;-59
2022/03/03 14:28:38;;;;;;;32.10;17.87;;;;;;;;;;5014276;28;20214;-60
2022/03/03 14:31:06;;;;;;;29.50;17.50;;;;;;;;;;5010187;28;20253;-59
2022/03/03 14:33:37;;;;;;;32.00;16.00;;;;;;;;;;5015125;28;20592;-60
2022/03/03 14:36:05;;;;;;;29.53;17.87;;;;;;;;;;5014459;28;20321;-60
2022/03/03 14:38:33;;;;;;;25.97;15.73;;;;;;;;;;5014777;28;20249;-60
2022/03/03 14:41:01;;;;;;;32.97;18.87;;;;;;;;;;5014412;28;20271;-60
2022/03/03 14:43:30;;;;;;;26.80;13.73;;;;;;;;;;5014718;28;20252;-60